createdAt,value
2018-06-02T01:08:41.344Z,98215.41
2018-06-02T01:09:44.218Z,98217.31
2018-06-02T01:10:47.118Z,98214.25
2018-06-02T01:11:49.975Z,98211.66
2018-06-02T01:12:53.222Z,98209.97
2018-06-02T01:13:56.028Z,98211.73
2018-06-02T01:14:59.656Z,98208.66
2018-06-02T01:16:02.454Z,98202.77
2018-06-02T01:17:05.270Z,98211.50
2018-06-02T01:18:08.529Z,98206.98
2018-06-02T01:19:11.314Z,98208.98
2018-06-02T01:20:14.095Z,98210.87
2018-06-02T01:21:17.177Z,98208.20
2018-06-02T01:22:19.965Z,98207.66
2018-06-02T01:23:22.738Z,98202.70
2018-06-02T01:24:25.571Z,98209.87
2018-06-02T01:25:28.510Z,98203.83
2018-06-02T01:26:31.465Z,98199.86
2018-06-02T01:27:34.718Z,98211.42
2018-06-02T01:28:37.608Z,98207.20
2018-06-02T01:29:40.393Z,98211.66
2018-06-02T01:30:43.340Z,98213.80
2018-06-02T01:31:46.229Z,98209.90
2018-06-02T01:32:49.031Z,98211.74
2018-06-02T01:33:52.223Z,98214.49
2018-06-02T01:34:55.217Z,98207.89
2018-06-02T01:35:58.212Z,98212.03
2018-06-02T01:37:01.149Z,98210.42
2018-06-02T01:38:04.100Z,98210.51
2018-06-02T01:39:07.063Z,98214.49
2018-06-02T01:40:10.278Z,98214.56
2018-06-02T01:41:13.211Z,98213.19
2018-06-02T01:42:16.201Z,98214.72
2018-06-02T01:43:19.063Z,98210.66
2018-06-02T01:44:22.051Z,98216.63
2018-06-02T01:45:25.234Z,98216.24
2018-06-02T01:46:28.548Z,98222.30
2018-06-02T01:47:31.595Z,98219.02
2018-06-02T01:48:34.493Z,98211.05
2018-06-02T01:49:37.552Z,98217.70
2018-06-02T01:50:40.410Z,98215.64
2018-06-02T01:51:43.265Z,98214.88
2018-06-02T01:52:46.703Z,98215.48
2018-06-02T01:53:50.046Z,98213.56
2018-06-02T01:54:53.406Z,98214.25
2018-06-02T01:55:57.061Z,98211.66
2018-06-02T01:57:00.372Z,98216.40
2018-06-02T01:58:04.114Z,98211.80
2018-06-02T01:59:07.278Z,98214.58
2018-06-02T02:00:10.588Z,98207.98
2018-06-02T02:01:13.973Z,98208.22
2018-06-02T02:02:17.198Z,98204.77
2018-06-02T02:03:20.340Z,98209.83
2018-06-02T02:04:23.186Z,98206.52
2018-06-02T02:05:26.863Z,98204.97
2018-06-02T02:06:29.680Z,98208.59
2018-06-02T02:07:32.544Z,98205.23
2018-06-02T02:08:35.595Z,98207.83
2018-06-02T02:09:38.656Z,98214.50
2018-06-02T02:10:42.036Z,98205.69
2018-06-02T02:11:45.454Z,98213.58
2018-06-02T02:12:48.284Z,98209.36
2018-06-02T02:13:51.883Z,98205.06
2018-06-02T02:14:54.752Z,98208.67
2018-06-02T02:15:57.598Z,98210.66
2018-06-02T02:17:00.515Z,98208.59
2018-06-02T02:18:03.799Z,98207.75
2018-06-02T02:19:06.609Z,98212.86
2018-06-02T02:20:09.523Z,98206.51
2018-06-02T02:21:12.439Z,98213.95
2018-06-02T02:22:15.294Z,98215.02
2018-06-02T02:23:18.505Z,98208.50
2018-06-02T02:24:21.893Z,98215.47
2018-06-02T02:25:24.714Z,98211.25
2018-06-02T02:26:27.534Z,98212.41
2018-06-02T02:27:30.655Z,98212.25
2018-06-02T02:28:33.748Z,98215.38
2018-06-02T02:29:36.859Z,98211.61
2018-06-02T02:30:40.277Z,98216.52
2018-06-02T02:31:43.449Z,98216.52
2018-06-02T02:32:46.351Z,98217.67
2018-06-02T02:33:49.118Z,98217.60
2018-06-02T02:34:52.073Z,98216.45
2018-06-02T02:35:55.234Z,98217.28
2018-06-02T02:36:58.791Z,98216.69
2018-06-02T02:38:01.779Z,98219.45
2018-06-02T02:39:04.842Z,98220.52
2018-06-02T02:40:07.624Z,98220.83
2018-06-02T02:41:12.060Z,98221.19
2018-06-02T02:42:14.844Z,98221.96
2018-06-02T02:43:18.395Z,98229.15
2018-06-02T02:44:21.773Z,98230.61
2018-06-02T02:45:24.624Z,98227.25
2018-06-02T02:46:27.402Z,98225.48
2018-06-02T02:47:30.272Z,98228.85
2018-06-02T02:48:33.149Z,98227.55
2018-06-02T02:49:36.252Z,98226.70
2018-06-02T02:50:39.125Z,98230.30
2018-06-02T02:51:41.899Z,98234.66
2018-06-02T02:52:44.654Z,98232.16
2018-06-02T02:53:47.733Z,98232.01
2018-06-02T02:54:50.572Z,98228.71
2018-06-02T02:55:53.772Z,98228.55
2018-06-02T02:56:56.658Z,98230.02
2018-06-02T02:57:59.493Z,98229.70
2018-06-02T02:59:02.677Z,98223.59
2018-06-02T03:00:05.611Z,98224.18
2018-06-02T03:01:08.484Z,98227.48
2018-06-02T03:02:11.703Z,98233.52
2018-06-02T03:03:14.473Z,98229.09
2018-06-02T03:04:17.252Z,98229.53
2018-06-02T03:05:20.042Z,98227.63
2018-06-02T03:06:23.105Z,98230.93
2018-06-02T03:07:25.885Z,98228.94
2018-06-02T03:08:29.167Z,98229.25
2018-06-02T03:09:32.012Z,98227.33
2018-06-02T03:10:34.950Z,98229.16
2018-06-02T03:11:37.962Z,98233.08
2018-06-02T03:12:40.758Z,98231.85
2018-06-02T03:13:43.643Z,98229.16
2018-06-02T03:14:46.765Z,98230.23
2018-06-02T03:15:49.690Z,98232.41
2018-06-02T03:16:52.557Z,98228.80
2018-06-02T03:17:55.562Z,98230.11
2018-06-02T03:18:58.344Z,98228.65
2018-06-02T03:20:01.212Z,98235.45
2018-06-02T03:21:04.488Z,98234.46
2018-06-02T03:22:07.269Z,98235.77
2018-06-02T03:23:10.078Z,98236.92
2018-06-02T03:24:12.827Z,98240.52
2018-06-02T03:25:15.849Z,98247.19
2018-06-02T03:26:18.632Z,98240.37
2018-06-02T03:27:21.743Z,98245.58
2018-06-02T03:28:24.779Z,98247.64
2018-06-02T03:29:27.607Z,98248.02
2018-06-02T03:30:31.375Z,98244.95
2018-06-02T03:31:34.132Z,98248.72
2018-06-02T03:32:36.925Z,98246.41
2018-06-02T03:33:40.147Z,98245.03
2018-06-02T03:34:43.017Z,98256.52
2018-06-02T03:35:45.892Z,98247.33
2018-06-02T03:36:48.699Z,98249.95
2018-06-02T03:37:51.484Z,98250.34
2018-06-02T03:38:54.272Z,98247.12
2018-06-02T03:39:57.754Z,98253.10
2018-06-02T03:41:00.560Z,98256.63
2018-06-02T03:42:03.814Z,98255.25
2018-06-02T03:43:07.508Z,98258.30
2018-06-02T03:44:10.316Z,98251.41
2018-06-02T03:45:13.198Z,98257.61
2018-06-02T03:46:16.262Z,98250.17
2018-06-02T03:47:19.068Z,98256.23
2018-06-02T03:48:21.843Z,98257.63
2018-06-02T03:49:24.635Z,98253.09
2018-06-02T03:50:27.475Z,98256.77
2018-06-02T03:51:30.294Z,98258.06
2018-06-02T03:52:33.505Z,98259.91
2018-06-02T03:53:36.264Z,98261.36
2018-06-02T03:54:39.069Z,98266.11
2018-06-02T03:55:41.841Z,98254.48
2018-06-02T03:56:44.683Z,98257.14
2018-06-02T03:57:47.440Z,98254.70
2018-06-02T03:58:50.546Z,98253.77
2018-06-02T03:59:53.594Z,98255.17
2018-06-02T04:00:56.406Z,98253.47
2018-06-02T04:01:59.257Z,98258.83
2018-06-02T04:03:02.030Z,98257.84
2018-06-02T04:04:04.849Z,98254.08
2018-06-02T04:05:07.981Z,98257.92
2018-06-02T04:06:10.743Z,98255.92
2018-06-02T04:07:13.500Z,98256.84
2018-06-02T04:08:16.274Z,98263.27
2018-06-02T04:09:19.208Z,98265.57
2018-06-02T04:10:21.995Z,98259.45
2018-06-02T04:11:25.136Z,98261.14
2018-06-02T04:12:27.926Z,98264.75
2018-06-02T04:13:30.683Z,98269.88
2018-06-02T04:14:33.644Z,98270.50
2018-06-02T04:15:36.401Z,98269.03
2018-06-02T04:16:39.577Z,98262.83
2018-06-02T04:17:44.314Z,98265.91
2018-06-02T04:18:47.097Z,98264.81
2018-06-02T04:19:49.853Z,98268.28
2018-06-02T04:20:52.654Z,98265.05
2018-06-02T04:21:55.434Z,98264.05
2018-06-02T04:22:58.523Z,98265.05
2018-06-02T04:24:01.319Z,98265.20
2018-06-02T04:25:04.100Z,98266.97
2018-06-02T04:26:06.865Z,98268.34
2018-06-02T04:27:09.643Z,98266.41
2018-06-02T04:28:12.433Z,98273.91
2018-06-02T04:29:15.503Z,98266.96
2018-06-02T04:30:18.285Z,98274.40
2018-06-02T04:31:21.052Z,98281.51
2018-06-02T04:32:23.813Z,98277.44
2018-06-02T04:33:26.628Z,98273.78
2018-06-02T04:34:29.420Z,98271.94
2018-06-02T04:35:32.504Z,98267.95
2018-06-02T04:36:35.315Z,98273.69
2018-06-02T04:37:38.294Z,98274.23
2018-06-02T04:38:41.082Z,98275.17
2018-06-02T04:39:43.863Z,98282.68
2018-06-02T04:40:46.616Z,98271.58
2018-06-02T04:41:49.715Z,98273.48
2018-06-02T04:42:52.559Z,98280.14
2018-06-02T04:43:55.343Z,98286.99
2018-06-02T04:44:58.168Z,98280.46
2018-06-02T04:46:00.932Z,98289.66
2018-06-02T04:47:03.728Z,98284.97
2018-06-02T04:48:06.885Z,98289.27
2018-06-02T04:49:10.117Z,98287.97
2018-06-02T04:50:12.890Z,98287.66
2018-06-02T04:51:16.187Z,98291.81
2018-06-02T04:52:18.989Z,98292.41
2018-06-02T04:53:21.774Z,98290.12
2018-06-02T04:54:24.961Z,98292.42
2018-06-02T04:55:27.866Z,98290.66
2018-06-02T04:56:30.642Z,98288.89
2018-06-02T04:57:33.466Z,98293.13
2018-06-02T04:58:36.329Z,98287.28
2018-06-02T04:59:39.108Z,98289.82
2018-06-02T05:00:42.351Z,98285.98
2018-06-02T05:01:45.153Z,98284.91
2018-06-02T05:02:48.027Z,98285.61
2018-06-02T05:03:50.787Z,98284.36
2018-06-02T05:04:53.559Z,98288.58
2018-06-02T05:05:56.333Z,98290.75
2018-06-02T05:06:59.377Z,98288.84
2018-06-02T05:08:02.179Z,98290.28
2018-06-02T05:09:05.170Z,98290.98
2018-06-02T05:10:07.945Z,98299.25
2018-06-02T05:11:10.743Z,98295.89
2018-06-02T05:12:13.701Z,98291.38
2018-06-02T05:13:16.842Z,98287.84
2018-06-02T05:14:19.653Z,98294.44
2018-06-02T05:15:22.440Z,98293.96
2018-06-02T05:16:25.227Z,98296.64
2018-06-02T05:17:28.000Z,98291.67
2018-06-02T05:18:30.807Z,98297.50
2018-06-02T05:19:33.869Z,98299.33
2018-06-02T05:20:36.675Z,98297.11
2018-06-02T05:21:40.304Z,98300.63
2018-06-02T05:22:43.663Z,98301.09
2018-06-02T05:23:46.465Z,98299.27
2018-06-02T05:24:49.233Z,98299.87
2018-06-02T05:25:52.481Z,98307.22
2018-06-02T05:26:55.263Z,98313.22
2018-06-02T05:27:58.036Z,98311.20
2018-06-02T05:29:00.829Z,98304.95
2018-06-02T05:30:03.645Z,98305.62
2018-06-02T05:31:06.431Z,98298.19
2018-06-02T05:32:09.513Z,98308.94
2018-06-02T05:33:12.281Z,98310.39
2018-06-02T05:34:15.065Z,98314.09
2018-06-02T05:35:17.993Z,98312.69
2018-06-02T05:36:20.815Z,98312.17
2018-06-02T05:37:23.614Z,98316.91
2018-06-02T05:38:26.719Z,98317.53
2018-06-02T05:39:29.517Z,98319.75
2018-06-02T05:40:32.322Z,98320.59
2018-06-02T05:41:35.172Z,98319.28
2018-06-02T05:42:37.949Z,98325.55
2018-06-02T05:43:40.733Z,98323.67
2018-06-02T05:44:43.823Z,98322.55
2018-06-02T05:45:46.627Z,98332.03
2018-06-02T05:46:49.378Z,98325.77
2018-06-02T05:47:52.144Z,98324.01
2018-06-02T05:48:54.901Z,98324.73
2018-06-02T05:49:57.685Z,98329.50
2018-06-02T05:51:00.806Z,98327.95
2018-06-02T05:52:03.585Z,98324.98
2018-06-02T05:53:06.398Z,98322.68
2018-06-02T05:54:09.218Z,98322.69
2018-06-02T05:55:12.046Z,98322.99
2018-06-02T05:56:14.848Z,98327.59
2018-06-02T05:57:18.113Z,98325.31
2018-06-02T05:58:20.856Z,98315.30
2018-06-02T05:59:23.751Z,98323.66
2018-06-02T06:00:26.583Z,98324.08
2018-06-02T06:01:29.405Z,98322.63
2018-06-02T06:02:32.170Z,98315.80
2018-06-02T06:03:35.253Z,98325.52
2018-06-02T06:04:38.016Z,98322.00
2018-06-02T06:05:40.919Z,98323.69
2018-06-02T06:06:43.713Z,98320.91
2018-06-02T06:07:46.513Z,98322.91
2018-06-02T06:08:49.336Z,98318.50
2018-06-02T06:09:52.433Z,98317.09
2018-06-02T06:10:55.212Z,98317.28
2018-06-02T06:11:58.010Z,98311.14
2018-06-02T06:13:00.798Z,98314.09
2018-06-02T06:14:03.652Z,98312.33
2018-06-02T06:15:06.430Z,98311.88
2018-06-02T06:16:10.037Z,98316.58
2018-06-02T06:17:12.793Z,98308.40
2018-06-02T06:18:15.575Z,98314.77
2018-06-02T06:19:18.384Z,98314.15
2018-06-02T06:20:21.203Z,98314.46
2018-06-02T06:21:23.992Z,98316.00
2018-06-02T06:22:27.283Z,98324.45
2018-06-02T06:23:30.068Z,98325.69
2018-06-02T06:24:32.820Z,98325.05
2018-06-02T06:25:35.589Z,98324.82
2018-06-02T06:26:38.372Z,98318.14
2018-06-02T06:27:41.137Z,98316.40
2018-06-02T06:28:44.351Z,98321.84
2018-06-02T06:29:47.119Z,98320.91
2018-06-02T06:30:49.906Z,98314.68
2018-06-02T06:31:52.710Z,98322.73
2018-06-02T06:32:55.578Z,98320.09
2018-06-02T06:33:58.422Z,98320.41
2018-06-02T06:35:01.282Z,98320.07
2018-06-02T06:36:04.129Z,98320.00
2018-06-02T06:37:06.927Z,98317.02
2018-06-02T06:38:09.745Z,98315.80
2018-06-02T06:39:12.565Z,98319.52
2018-06-02T06:40:15.680Z,98316.02
2018-06-02T06:41:18.509Z,98323.67
2018-06-02T06:42:21.287Z,98318.39
2018-06-02T06:43:24.094Z,98324.50
2018-06-02T06:44:26.896Z,98332.59
2018-06-02T06:45:29.712Z,98324.77
2018-06-02T06:46:32.833Z,98330.45
2018-06-02T06:47:35.612Z,98330.53
2018-06-02T06:48:38.390Z,98333.66
2018-06-02T06:49:41.179Z,98337.84
2018-06-02T06:50:44.032Z,98330.95
2018-06-02T06:51:46.852Z,98327.34
2018-06-02T06:52:49.976Z,98324.50
2018-06-02T06:53:52.735Z,98328.19
2018-06-02T06:54:55.535Z,98332.45
2018-06-02T06:55:58.363Z,98329.59
2018-06-02T06:57:01.171Z,98330.22
2018-06-02T06:58:03.959Z,98328.92
2018-06-02T06:59:07.257Z,98325.67
2018-06-02T07:00:10.012Z,98327.92
2018-06-02T07:01:12.803Z,98326.83
2018-06-02T07:02:15.585Z,98326.83
2018-06-02T07:03:18.369Z,98328.22
2018-06-02T07:04:21.159Z,98329.59
2018-06-02T07:05:24.271Z,98331.36
2018-06-02T07:06:27.124Z,98328.50
2018-06-02T07:07:29.958Z,98324.55
2018-06-02T07:08:33.239Z,98325.39
2018-06-02T07:09:36.359Z,98321.08
2018-06-02T07:10:39.213Z,98318.69
2018-06-02T07:11:42.370Z,98322.55
2018-06-02T07:12:45.215Z,98318.53
2018-06-02T07:13:48.115Z,98319.16
2018-06-02T07:14:50.924Z,98319.49
2018-06-02T07:15:53.857Z,98324.06
2018-06-02T07:16:56.658Z,98319.45
2018-06-02T07:17:59.789Z,98320.23
2018-06-02T07:19:02.562Z,98319.92
2018-06-02T07:20:05.363Z,98319.91
2018-06-02T07:21:08.324Z,98331.28
2018-06-02T07:22:11.102Z,98328.86
2018-06-02T07:23:13.924Z,98325.30
2018-06-02T07:24:17.239Z,98325.92
2018-06-02T07:25:20.058Z,98324.24
2018-06-02T07:26:23.571Z,98323.38
2018-06-02T07:27:26.380Z,98324.14
2018-06-02T07:28:29.156Z,98322.67
2018-06-02T07:29:31.956Z,98323.14
2018-06-02T07:30:35.086Z,98323.05
2018-06-02T07:31:37.893Z,98326.98
2018-06-02T07:33:54.059Z,98332.69
2018-06-02T07:34:57.014Z,98328.83
2018-06-02T07:36:00.118Z,98334.38
2018-06-02T07:37:03.377Z,98331.69
2018-06-02T07:38:07.126Z,98337.28
2018-06-02T07:39:09.913Z,98333.99
2018-06-02T07:40:13.009Z,98333.51
2018-06-02T07:41:15.821Z,98332.23
2018-06-02T07:42:18.715Z,98331.17
2018-06-02T07:43:21.563Z,98321.17
2018-06-02T07:44:24.562Z,98323.60
2018-06-02T07:45:27.312Z,98327.75
2018-06-02T07:46:30.455Z,98325.36
2018-06-02T07:47:33.286Z,98326.59
2018-06-02T07:48:36.096Z,98327.44
2018-06-02T07:49:38.922Z,98319.89
2018-06-02T07:50:41.775Z,98321.39
2018-06-02T07:51:44.561Z,98329.55
2018-06-02T07:52:48.155Z,98328.44
2018-06-02T07:53:50.968Z,98327.73
2018-06-02T07:54:53.777Z,98324.45
2018-06-02T07:55:56.645Z,98327.78
2018-06-02T07:56:59.432Z,98331.75
2018-06-02T07:58:02.263Z,98328.98
2018-06-02T07:59:05.349Z,98322.76
2018-06-02T08:00:08.242Z,98331.13
2018-06-02T08:01:11.039Z,98331.31
2018-06-02T08:02:13.839Z,98332.31
2018-06-02T08:03:16.654Z,98327.36
2018-06-02T08:04:19.754Z,98327.45
2018-06-02T08:05:23.010Z,98330.38
2018-06-02T08:06:25.790Z,98339.15
2018-06-02T08:07:28.781Z,98330.22
2018-06-02T08:08:31.606Z,98321.98
2018-06-02T08:09:34.437Z,98317.98
2018-06-02T08:10:37.510Z,98331.93
2018-06-02T08:11:40.668Z,98326.99
2018-06-02T08:12:43.478Z,98332.95
2018-06-02T08:13:46.299Z,98331.08
2018-06-02T08:14:49.163Z,98331.25
2018-06-02T08:15:52.369Z,98335.48
2018-06-02T08:16:55.159Z,98334.55
2018-06-02T08:17:58.255Z,98339.93
2018-06-02T08:19:01.063Z,98341.58
2018-06-02T08:20:03.844Z,98333.00
2018-06-02T08:21:06.643Z,98338.73
2018-06-02T08:22:10.880Z,98334.73
2018-06-02T08:23:14.843Z,98339.04
2018-06-02T08:24:18.368Z,98337.50
2018-06-02T08:25:21.316Z,98342.34
2018-06-02T08:26:24.405Z,98347.87
2018-06-02T08:27:27.447Z,98337.69
2018-06-02T08:28:30.307Z,98342.91
2018-06-02T08:29:33.261Z,98348.42
2018-06-02T08:30:36.397Z,98349.64
2018-06-02T08:31:39.259Z,98344.73
2018-06-02T08:32:42.089Z,98347.11
2018-06-02T08:33:44.952Z,98354.27
2018-06-02T08:34:48.309Z,98345.98
2018-06-02T08:35:51.144Z,98348.36
2018-06-02T08:36:54.322Z,98355.03
2018-06-02T08:37:57.197Z,98345.38
2018-06-02T08:39:00.164Z,98339.44
2018-06-02T08:40:03.114Z,98351.80
2018-06-02T08:41:06.030Z,98350.34
2018-06-02T08:42:08.883Z,98341.55
2018-06-02T08:43:11.996Z,98346.64
2018-06-02T08:44:14.789Z,98347.57
2018-06-02T08:45:17.630Z,98344.73
2018-06-02T08:46:20.436Z,98340.90
2018-06-02T08:47:23.321Z,98334.05
2018-06-02T08:48:26.106Z,98347.02
2018-06-02T08:49:29.218Z,98343.89
2018-06-02T08:50:32.021Z,98344.63
2018-06-02T08:51:34.876Z,98340.37
2018-06-02T08:52:37.762Z,98345.22
2018-06-02T08:53:40.714Z,98349.34
2018-06-02T08:54:43.561Z,98349.49
2018-06-02T08:55:46.381Z,98349.58
2018-06-02T08:56:49.151Z,98352.44
2018-06-02T08:57:51.908Z,98353.03
2018-06-02T08:58:54.710Z,98348.42
2018-06-02T08:59:58.518Z,98350.91
2018-06-02T09:01:01.356Z,98356.32
2018-06-02T09:02:04.235Z,98346.87
2018-06-02T09:03:07.107Z,98345.27
2018-06-02T09:04:09.886Z,98350.30
2018-06-02T09:05:12.713Z,98342.73
2018-06-02T09:06:15.492Z,98344.94
2018-06-02T09:07:19.189Z,98343.73
2018-06-02T09:08:22.046Z,98339.63
2018-06-02T09:09:25.530Z,98347.61
2018-06-02T09:10:28.417Z,98346.05
2018-06-02T09:11:31.318Z,98343.45
2018-06-02T09:12:34.177Z,98346.56
2018-06-02T09:13:37.348Z,98341.95
2018-06-02T09:14:40.234Z,98344.98
2018-06-02T09:15:43.657Z,98346.05
2018-06-02T09:16:46.508Z,98348.77
2018-06-02T09:17:49.339Z,98340.86
2018-06-02T09:18:52.183Z,98347.75
2018-06-02T09:19:56.034Z,98342.52
2018-06-02T09:20:59.085Z,98342.27
2018-06-02T09:22:01.912Z,98340.64
2018-06-02T09:23:05.011Z,98340.34
2018-06-02T09:24:07.817Z,98348.77
2018-06-02T09:25:10.609Z,98344.48
2018-06-02T09:26:14.477Z,98344.83
2018-06-02T09:27:17.280Z,98339.87
2018-06-02T09:28:20.088Z,98334.61
2018-06-02T09:29:23.021Z,98344.87
2018-06-02T09:30:25.836Z,98347.50
2018-06-02T09:31:28.609Z,98355.04
2018-06-02T09:32:31.717Z,98347.63
2018-06-02T09:33:34.587Z,98346.70
2018-06-02T09:34:37.708Z,98352.20
2018-06-02T09:35:41.138Z,98354.84
2018-06-02T09:36:43.914Z,98357.38
2018-06-02T09:37:46.837Z,98355.89
2018-06-02T09:38:50.034Z,98352.84
2018-06-02T09:39:52.875Z,98352.16
2018-06-02T09:40:55.689Z,98353.48
2018-06-02T09:41:58.575Z,98358.05
2018-06-02T09:43:01.527Z,98350.83
2018-06-02T09:44:04.431Z,98360.52
2018-06-02T09:45:07.604Z,98358.33
2018-06-02T09:46:10.451Z,98354.99
2018-06-02T09:47:13.252Z,98353.30
2018-06-02T09:48:16.361Z,98355.25
2018-06-02T09:49:19.670Z,98355.42
2018-06-02T09:50:22.547Z,98350.80
2018-06-02T09:51:25.700Z,98354.13
2018-06-02T09:52:28.500Z,98359.48
2018-06-02T09:53:31.625Z,98355.88
2018-06-02T09:54:34.466Z,98355.94
2018-06-02T09:55:37.315Z,98356.66
2018-06-02T09:56:40.129Z,98356.27
2018-06-02T09:57:43.609Z,98357.45
2018-06-02T09:58:46.503Z,98354.94
2018-06-02T09:59:49.323Z,98353.30
2018-06-02T10:00:52.156Z,98344.16
2018-06-02T10:01:54.976Z,98348.38
2018-06-02T10:02:57.788Z,98353.38
2018-06-02T10:04:01.063Z,98351.80
2018-06-02T10:05:03.891Z,98359.41
2018-06-02T10:06:06.682Z,98353.20
2018-06-02T10:07:09.488Z,98357.03
2018-06-02T10:08:12.338Z,98356.77
2018-06-02T10:09:15.130Z,98336.11
2018-06-02T10:10:18.309Z,98350.65
2018-06-02T10:11:21.201Z,98351.41
2018-06-02T10:12:24.019Z,98350.59
2018-06-02T10:13:26.932Z,98358.52
2018-06-02T10:14:29.840Z,98353.41
2018-06-02T10:15:32.854Z,98362.20
2018-06-02T10:16:36.202Z,98360.45
2018-06-02T10:17:39.210Z,98361.82
2018-06-02T10:18:42.143Z,98361.16
2018-06-02T10:19:45.118Z,98357.22
2018-06-02T10:20:47.971Z,98365.38
2018-06-02T10:21:50.859Z,98358.64
2018-06-02T10:22:53.970Z,98361.84
2018-06-02T10:23:56.811Z,98366.72
2018-06-02T10:24:59.665Z,98360.41
2018-06-02T10:26:02.906Z,98364.15
2018-06-02T10:27:05.753Z,98362.87
2018-06-02T10:28:08.761Z,98361.69
2018-06-02T10:29:12.057Z,98361.73
2018-06-02T10:30:14.981Z,98360.48
2018-06-02T10:31:17.805Z,98361.47
2018-06-02T10:32:20.591Z,98360.23
2018-06-02T10:33:23.358Z,98361.20
2018-06-02T10:34:26.208Z,98352.88
2018-06-02T10:35:29.172Z,98355.25
2018-06-02T10:36:32.075Z,98359.41
2018-06-02T10:37:34.897Z,98353.80
2018-06-02T10:38:37.710Z,98355.89
2018-06-02T10:39:40.541Z,98358.52
2018-06-02T10:40:43.562Z,98361.48
2018-06-02T10:41:46.725Z,98359.99
2018-06-02T10:42:49.477Z,98360.17
2018-06-02T10:43:52.351Z,98360.46
2018-06-02T10:44:55.157Z,98362.00
2018-06-02T10:45:58.197Z,98360.56
2018-06-02T10:47:01.159Z,98357.80
2018-06-02T10:48:04.401Z,98360.77
2018-06-02T10:49:07.294Z,98360.00
2018-06-02T10:50:10.141Z,98360.86
2018-06-02T10:51:13.140Z,98360.80
2018-06-02T10:52:16.211Z,98356.08
2018-06-02T10:53:19.081Z,98358.00
2018-06-02T10:54:22.205Z,98360.68
2018-06-02T10:55:25.064Z,98362.23
2018-06-02T10:56:27.879Z,98359.55
2018-06-02T10:57:30.731Z,98358.89
2018-06-02T10:58:33.516Z,98362.26
2018-06-02T10:59:36.340Z,98352.70
2018-06-02T11:00:39.493Z,98363.45
2018-06-02T11:01:42.333Z,98351.59
2018-06-02T11:02:45.301Z,98356.94
2018-06-02T11:03:48.155Z,98359.67
2018-06-02T11:04:51.001Z,98353.72
2018-06-02T11:05:53.828Z,98353.65
2018-06-02T11:06:57.142Z,98351.81
2018-06-02T11:07:59.984Z,98344.81
2018-06-02T11:09:02.824Z,98355.61
2018-06-02T11:10:05.696Z,98356.08
2018-06-02T11:11:08.609Z,98345.42
2018-06-02T11:12:11.570Z,98346.50
2018-06-02T11:13:14.813Z,98339.66
2018-06-02T11:14:17.728Z,98349.77
2018-06-02T11:15:20.542Z,98340.42
2018-06-02T11:16:23.346Z,98350.44
2018-06-02T11:17:26.234Z,98345.83
2018-06-02T11:18:29.352Z,98353.09
2018-06-02T11:19:32.771Z,98351.55
2018-06-02T11:20:36.287Z,98343.95
2018-06-02T11:21:39.103Z,98341.40
2018-06-02T11:22:42.257Z,98338.00
2018-06-02T11:23:45.232Z,98342.15
2018-06-02T11:24:48.090Z,98341.07
2018-06-02T11:25:51.431Z,98340.23
2018-06-02T11:26:54.306Z,98339.66
2018-06-02T11:27:57.568Z,98333.93
2018-06-02T11:29:00.438Z,98331.09
2018-06-02T11:30:03.491Z,98330.73
2018-06-02T11:31:06.305Z,98337.77
2018-06-02T11:32:09.630Z,98340.43
2018-06-02T11:33:12.470Z,98347.66
2018-06-02T11:34:15.368Z,98342.36
2018-06-02T11:35:18.281Z,98340.10
2018-06-02T11:36:21.191Z,98342.73
2018-06-02T11:37:23.984Z,98346.80
2018-06-02T11:38:27.150Z,98347.22
2018-06-02T11:39:30.024Z,98345.07
2018-06-02T11:40:32.938Z,98346.94
2018-06-02T11:41:35.902Z,98342.26
2018-06-02T11:42:38.786Z,98340.81
2018-06-02T11:43:41.709Z,98342.36
2018-06-02T11:44:44.625Z,98350.30
2018-06-02T11:45:48.189Z,98340.44
2018-06-02T11:46:51.453Z,98339.84
2018-06-02T11:47:54.372Z,98345.80
2018-06-02T11:48:57.339Z,98349.63
2018-06-02T11:50:01.285Z,98354.61
2018-06-02T11:51:04.202Z,98349.48
2018-06-02T11:52:07.193Z,98345.85
2018-06-02T11:53:10.005Z,98347.89
2018-06-02T11:54:13.037Z,98350.23
2018-06-02T11:55:15.875Z,98346.06
2018-06-02T11:56:19.160Z,98343.68
2018-06-02T11:57:22.082Z,98345.22
2018-06-02T11:58:25.012Z,98346.36
2018-06-02T11:59:27.897Z,98341.91
2018-06-02T12:00:31.077Z,98345.06
2018-06-02T12:01:34.921Z,98344.39
2018-06-02T12:02:38.202Z,98345.06
2018-06-02T12:03:41.150Z,98345.34
2018-06-02T12:04:44.019Z,98342.78
2018-06-02T12:05:46.915Z,98342.17
2018-06-02T12:06:49.757Z,98336.50
2018-06-02T12:07:52.674Z,98337.89
2018-06-02T12:08:55.820Z,98336.20
2018-06-02T12:09:58.726Z,98329.39
2018-06-02T12:11:01.773Z,98330.52
2018-06-02T12:12:04.835Z,98326.30
2018-06-02T12:13:07.680Z,98324.00
2018-06-02T12:14:10.504Z,98320.87
2018-06-02T12:15:13.631Z,98326.66
2018-06-02T12:16:16.558Z,98320.66
2018-06-02T12:17:19.434Z,98319.59
2018-06-02T12:18:22.360Z,98320.31
2018-06-02T12:19:25.336Z,98314.17
2018-06-02T12:20:28.304Z,98319.77
2018-06-02T12:21:31.614Z,98319.14
2018-06-02T12:22:34.563Z,98317.34
2018-06-02T12:23:37.473Z,98321.71
2018-06-02T12:24:40.422Z,98311.84
2018-06-02T12:25:43.339Z,98313.86
2018-06-02T12:26:46.127Z,98304.26
2018-06-02T12:27:49.406Z,98307.41
2018-06-02T12:28:52.344Z,98303.84
2018-06-02T12:29:55.382Z,98306.41
2018-06-02T12:30:58.255Z,98318.34
2018-06-02T12:32:01.273Z,98310.90
2018-06-02T12:33:04.245Z,98313.45
2018-06-02T12:34:07.457Z,98308.14
2018-06-02T12:35:10.384Z,98307.59
2018-06-02T12:36:13.338Z,98302.44
2018-06-02T12:37:16.253Z,98304.73
2018-06-02T12:38:19.159Z,98301.95
2018-06-02T12:39:22.000Z,98303.46
2018-06-02T12:40:25.179Z,98299.53
2018-06-02T12:41:29.098Z,98298.00
2018-06-02T12:42:32.012Z,98299.55
2018-06-02T12:43:37.537Z,98297.00
2018-06-02T12:44:40.592Z,98296.48
2018-06-02T12:45:43.449Z,98290.41
2018-06-02T12:46:46.612Z,98291.65
2018-06-02T12:47:49.428Z,98298.27
2018-06-02T12:48:52.254Z,98295.34
2018-06-02T12:49:55.066Z,98293.19
2018-06-02T12:50:57.899Z,98290.52
2018-06-02T12:52:00.787Z,98294.20
2018-06-02T12:53:04.049Z,98292.17
2018-06-02T12:54:06.849Z,98297.77
2018-06-02T12:55:09.620Z,98301.70
2018-06-02T12:56:12.435Z,98296.22
2018-06-02T12:57:15.389Z,98296.22
2018-06-02T12:58:18.239Z,98291.05
2018-06-02T12:59:21.022Z,98284.70
2018-06-02T13:00:23.875Z,98289.15
2018-06-02T13:01:26.717Z,98296.59
2018-06-02T13:02:29.562Z,98284.66
2018-06-02T13:03:32.345Z,98291.34
2018-06-02T13:04:35.668Z,98287.85
2018-06-02T13:05:38.502Z,98295.13
2018-06-02T13:06:41.439Z,98294.03
2018-06-02T13:07:44.395Z,98289.77
2018-06-02T13:08:47.279Z,98297.49
2018-06-02T13:09:50.240Z,98292.99
2018-06-02T13:10:55.617Z,98292.73
2018-06-02T13:11:59.072Z,98281.45
2018-06-02T13:13:02.413Z,98289.33
2018-06-02T13:14:05.241Z,98284.16
2018-06-02T13:15:08.844Z,98280.17
2018-06-02T13:16:11.742Z,98279.88
2018-06-02T13:17:14.947Z,98285.20
2018-06-02T13:18:20.579Z,98277.25
2018-06-02T13:19:23.719Z,98279.52
2018-06-02T13:20:28.638Z,98274.03
2018-06-02T13:21:33.519Z,98277.54
2018-06-02T13:22:36.528Z,98280.71
2018-06-02T13:23:39.688Z,98275.17
2018-06-02T13:24:43.266Z,98271.50
2018-06-02T13:25:46.193Z,98269.95
2018-06-02T13:26:49.884Z,98276.73
2018-06-02T13:27:52.709Z,98274.45
2018-06-02T13:28:56.594Z,98265.55